Time;durP1;ratioP1;P1;durP2;ratioP2;P2;SDS_P1;SDS_P2;PMS_P1;PMS_P2;Temp;Humidity;BMP_temperature;BMP_pressure;BME280_temperature;BME280_humidity;BME280_pressure;Samples;Min_cycle;Max_cycle;Signal;HPM_P1;HPM_P2
2021/01/07 00:01:07;;;;;;;22.23;19.40;;;;;;;4.17;89.88;100363.06;4957671;29;20062;-85
2021/01/07 00:04:11;;;;;;;20.50;18.40;;;;;;;4.12;89.77;100365.13;4957672;29;20050;-82
2021/01/07 00:07:15;;;;;;;25.23;20.08;;;;;;;4.16;89.98;100359.53;4957619;29;20054;-85
2021/01/07 00:10:20;;;;;;;21.27;18.83;;;;;;;4.23;89.76;100360.88;4956722;29;20074;-86
2021/01/07 00:13:25;;;;;;;22.95;20.15;;;;;;;4.23;89.56;100366.19;4957524;29;20054;-86
2021/01/07 00:16:29;;;;;;;21.42;18.90;;;;;;;4.19;89.58;100355.84;4957151;29;20059;-87
2021/01/07 00:19:34;;;;;;;20.80;18.60;;;;;;;4.16;90.07;100367.50;4957592;29;20407;-85
2021/01/07 00:22:39;;;;;;;20.98;18.67;;;;;;;4.18;89.64;100362.09;4945622;29;20522;-85
2021/01/07 00:25:49;;;;;;;21.42;19.13;;;;;;;4.22;89.33;100361.81;4957368;29;20066;-84
2021/01/07 00:28:53;;;;;;;19.95;17.83;;;;;;;4.28;89.71;100366.75;4957494;29;20050;-88
2021/01/07 00:31:57;;;;;;;20.95;18.33;;;;;;;4.30;89.06;100356.88;4957302;29;20058;-85
2021/01/07 00:34:58;;;;;;;20.50;18.27;;;;;;;4.31;89.26;100358.59;5091847;27;20415;-85
2021/01/07 00:38:03;;;;;;;21.80;19.13;;;;;;;4.22;89.30;100361.81;5090842;28;20051;-86
2021/01/07 00:41:07;;;;;;;19.92;17.83;;;;;;;4.24;89.30;100361.72;5091292;28;20044;-86
2021/01/07 00:44:11;;;;;;;20.23;18.13;;;;;;;4.18;89.13;100367.41;5090762;28;20055;-86
2021/01/07 00:47:16;;;;;;;19.88;17.75;;;;;;;4.17;89.39;100379.84;5091252;28;20051;-85
2021/01/07 00:50:20;;;;;;;22.20;19.38;;;;;;;4.13;89.54;100380.09;5090088;28;20106;-87
2021/01/07 00:53:24;;;;;;;22.45;18.38;;;;;;;4.08;89.88;100384.84;5090485;28;20110;-88
2021/01/07 00:56:35;;;;;;;22.80;18.42;;;;;;;4.05;90.03;100385.88;5090184;28;20051;-87
2021/01/07 00:59:39;;;;;;;21.42;18.75;;;;;;;4.04;89.95;100392.16;5090460;28;20063;-86
2021/01/07 01:02:44;;;;;;;22.58;19.48;;;;;;;4.09;89.60;100395.41;5089983;28;20067;-87
2021/01/07 01:05:49;;;;;;;20.58;18.38;;;;;;;4.13;89.61;100402.22;5090792;28;20059;-81
2021/01/07 01:08:53;;;;;;;20.90;18.55;;;;;;;4.21;89.32;100397.31;5089973;28;20055;-88
2021/01/07 01:11:57;;;;;;;21.52;17.88;;;;;;;4.27;89.22;100396.09;5091176;28;20486;-87
2021/01/07 01:15:07;;;;;;;20.58;18.15;;;;;;;4.30;88.92;100394.06;5090114;28;20051;-88
2021/01/07 01:18:11;;;;;;;21.13;18.20;;;;;;;4.30;88.99;100393.22;5090764;28;20491;-86
2021/01/07 01:21:16;;;;;;;23.75;18.92;;;;;;;4.14;88.84;100385.34;5090844;28;20047;-87
2021/01/07 01:24:21;;;;;;;23.08;19.58;;;;;;;4.10;89.50;100389.13;5090544;28;20052;-81
2021/01/07 01:27:44;;;;;;;24.85;19.70;;;;;;;4.02;89.44;100398.50;5090936;28;20123;-85
2021/01/07 01:30:49;;;;;;;21.98;19.45;;;;;;;3.99;89.54;100404.00;5091949;28;20494;-81
2021/01/07 01:33:53;;;;;;;25.95;21.02;;;;;;;3.90;89.94;100402.75;5091804;28;20075;-85
2021/01/07 01:37:04;;;;;;;25.92;20.55;;;;;;;3.81;90.15;100408.59;5090202;28;20051;-86
2021/01/07 01:40:11;;;;;;;24.92;20.42;;;;;;;3.79;90.41;100414.00;5089609;28;20051;-84
2021/01/07 01:43:15;;;;;;;25.33;20.63;;;;;;;3.81;90.70;100413.91;5089250;28;20055;-86
2021/01/07 01:46:20;;;;;;;24.83;20.13;;;;;;;3.83;90.74;100412.88;5076640;28;20051;-82
2021/01/07 01:49:24;;;;;;;22.23;19.27;;;;;;;3.90;90.48;100418.69;5076545;28;20510;-86
2021/01/07 01:52:29;;;;;;;23.73;18.52;;;;;;;3.96;90.34;100423.63;5076595;28;20454;-85
2021/01/07 01:55:34;;;;;;;21.40;18.20;;;;;;;4.01;90.45;100413.59;5064257;28;20068;-80
2021/01/07 01:58:41;;;;;;;20.98;17.60;;;;;;;4.01;90.11;100408.28;5075545;28;20392;-83
2021/01/07 02:01:45;;;;;;;21.60;18.77;;;;;;;3.97;90.13;100409.41;5076302;28;20060;-85
2021/01/07 02:04:49;;;;;;;20.85;18.55;;;;;;;3.99;89.85;100409.31;5075498;28;20043;-88
2021/01/07 02:07:54;;;;;;;24.98;19.15;;;;;;;3.97;90.07;100410.25;5075623;28;20380;-84
2021/01/07 02:10:59;;;;;;;21.33;18.15;;;;;;;4.00;90.09;100408.38;5076091;28;20059;-84
2021/01/07 02:14:05;;;;;;;24.05;20.00;;;;;;;4.02;89.76;100406.47;5076159;28;20384;-86
2021/01/07 02:17:10;;;;;;;22.88;18.33;;;;;;;4.04;89.79;100413.41;5063291;28;20403;-83
2021/01/07 02:20:21;;;;;;;22.58;18.70;;;;;;;4.00;89.54;100403.91;5075139;28;20510;-81
2021/01/07 02:23:25;;;;;;;21.60;18.98;;;;;;;3.99;89.69;100401.34;5075456;28;20048;-81
2021/01/07 02:26:31;;;;;;;20.15;17.23;;;;;;;3.99;89.53;100398.69;5075854;28;20043;-80
2021/01/07 02:29:35;;;;;;;22.77;18.10;;;;;;;3.95;89.80;100400.66;5075760;28;20047;-86
2021/01/07 02:32:40;;;;;;;21.77;19.17;;;;;;;3.93;89.68;100399.91;5074894;28;20048;-86
2021/01/07 02:35:44;;;;;;;21.92;18.52;;;;;;;3.93;90.02;100407.88;5075953;28;20395;-85
2021/01/07 02:38:49;;;;;;;20.35;17.60;;;;;;;3.97;90.02;100398.78;5074990;28;20055;-88
2021/01/07 02:41:55;;;;;;;21.15;18.08;;;;;;;3.99;90.06;100401.34;5074673;28;20044;-85
2021/01/07 02:44:59;;;;;;;22.58;18.20;;;;;;;4.01;90.21;100397.66;5074632;28;20387;-86
2021/01/07 02:48:05;;;;;;;23.45;18.42;;;;;;;4.04;90.14;100400.13;5074518;28;20056;-86
2021/01/07 02:51:09;;;;;;;23.08;17.27;;;;;;;4.07;89.78;100397.28;5074656;28;20506;-86
2021/01/07 02:54:13;;;;;;;21.17;17.25;;;;;;;4.06;89.78;100397.38;5063157;28;20043;-87
2021/01/07 02:57:18;;;;;;;21.10;16.85;;;;;;;4.06;89.54;100390.25;5073466;28;20055;-87
2021/01/07 03:00:22;;;;;;;23.90;17.92;;;;;;;4.04;89.61;100391.31;5075210;28;20067;-84
2021/01/07 03:03:27;;;;;;;19.67;17.00;;;;;;;4.03;89.48;100393.09;5075021;28;20059;-84
2021/01/07 03:06:52;;;;;;;18.88;16.10;;;;;;;4.02;89.33;100390.53;5052581;28;20052;-80
2021/01/07 03:09:56;;;;;;;18.80;15.55;;;;;;;4.02;89.45;100391.41;5052457;28;20056;-87
2021/01/07 03:13:00;;;;;;;;;;;;;;;3.99;89.15;100386.28;5041923;28;20052;-81
2021/01/07 03:16:05;;;;;;;18.38;15.48;;;;;;;3.97;89.07;100388.16;5041630;28;19924;-85
2021/01/07 03:19:09;;;;;;;22.05;16.08;;;;;;;3.97;89.30;100383.69;5052801;28;20056;-87
2021/01/07 03:22:14;;;;;;;20.90;16.85;;;;;;;3.94;89.03;100388.34;5041521;28;20068;-87
2021/01/07 03:25:18;;;;;;;20.65;16.00;;;;;;;3.94;89.13;100386.56;5052793;28;20068;-85
2021/01/07 03:28:22;;;;;;;20.70;16.23;;;;;;;3.91;89.03;100380.56;5052486;28;20183;-84
2021/01/07 03:31:26;;;;;;;19.05;15.52;;;;;;;3.87;89.22;100387.00;5052711;28;20137;-82
2021/01/07 03:34:30;;;;;;;18.92;15.02;;;;;;;3.88;88.96;100389.56;5040074;28;20157;-86
2021/01/07 03:37:34;;;;;;;19.73;16.02;;;;;;;3.87;89.21;100387.00;5052768;28;20052;-87
2021/01/07 03:40:39;;;;;;;18.75;16.15;;;;;;;3.90;89.01;100392.16;5052273;28;20443;-87
2021/01/07 03:43:43;;;;;;;21.83;16.10;;;;;;;3.87;89.00;100394.97;5057462;28;20056;-86
2021/01/07 03:46:47;;;;;;;23.25;16.02;;;;;;;3.86;89.14;100395.91;5074006;28;20051;-86
2021/01/07 03:49:51;;;;;;;18.10;14.70;;;;;;;3.88;89.21;100394.00;5073547;28;20486;-86
2021/01/07 03:52:56;;;;;;;18.05;14.65;;;;;;;3.87;88.95;100397.63;5074442;28;20051;-88
2021/01/07 03:56:00;;;;;;;17.38;14.45;;;;;;;3.89;89.19;100399.25;5073986;28;20581;-83
2021/01/07 03:59:04;;;;;;;17.90;14.77;;;;;;;3.87;88.61;100395.84;5073937;28;20048;-86
2021/01/07 04:02:09;;;;;;;16.70;14.05;;;;;;;3.90;88.74;100392.16;5073926;28;20048;-86
2021/01/07 04:05:14;;;;;;;;;;;;;;;3.81;88.80;100392.66;5074374;28;20375;-86
2021/01/07 04:08:18;;;;;;;17.42;14.27;;;;;;;3.79;88.95;100386.59;5073095;28;20279;-87
2021/01/07 04:11:22;;;;;;;18.13;13.85;;;;;;;3.75;89.32;100396.53;5080492;28;20051;-85
2021/01/07 04:14:27;;;;;;;16.77;13.90;;;;;;;3.76;89.09;100395.59;5077212;28;20490;-85
2021/01/07 04:17:32;;;;;;;19.17;15.63;;;;;;;3.73;89.73;100386.97;5073825;28;20044;-86
2021/01/07 04:20:36;;;;;;;20.40;15.35;;;;;;;3.75;89.43;100379.78;5073125;28;20047;-86
2021/01/07 04:23:41;;;;;;;20.38;14.88;;;;;;;3.73;89.46;100379.84;5073737;28;20060;-85
2021/01/07 04:26:45;;;;;;;;;;;;;;;3.68;89.55;100386.41;5074092;28;20039;-86
2021/01/07 04:29:49;;;;;;;19.70;14.95;;;;;;;3.65;89.67;100382.13;5073418;28;19916;-88
2021/01/07 04:32:54;;;;;;;20.10;15.15;;;;;;;3.62;89.47;100386.75;5072344;28;20056;-86
2021/01/07 04:35:58;;;;;;;16.52;13.77;;;;;;;3.62;89.33;100397.38;5070282;28;20055;-86
2021/01/07 04:39:02;;;;;;;;;;;;;;;3.58;89.72;100388.72;5062748;28;20048;-81
2021/01/07 04:42:06;;;;;;;17.30;14.68;;;;;;;3.62;89.75;100386.75;5065017;28;19916;-79
2021/01/07 04:45:12;;;;;;;19.73;14.77;;;;;;;3.67;89.59;100382.03;5061468;28;20056;-81
2021/01/07 04:48:18;;;;;;;20.15;15.98;;;;;;;3.61;89.61;100385.03;5072723;28;20425;-79
2021/01/07 04:51:21;;;;;;;21.25;15.40;;;;;;;3.64;89.78;100374.25;5064335;28;20048;-78
2021/01/07 04:54:26;;;;;;;20.83;15.05;;;;;;;3.67;89.66;100374.06;5062484;28;20048;-81
2021/01/07 04:57:30;;;;;;;20.80;14.65;;;;;;;3.65;89.43;100375.97;5063436;28;20052;-80
2021/01/07 05:00:36;;;;;;;18.20;14.80;;;;;;;3.61;89.32;100385.03;5060822;28;20048;-80
2021/01/07 05:03:44;;;;;;;19.65;14.73;;;;;;;3.54;88.99;100386.34;5067088;28;20510;-81
2021/01/07 05:06:49;;;;;;;18.60;15.18;;;;;;;3.49;89.07;100393.72;5063612;28;20415;-82
2021/01/07 05:10:04;;;;;;;21.02;16.02;;;;;;;3.42;89.28;100384.41;5062743;28;20047;-82
2021/01/07 05:13:08;;;;;;;22.25;16.13;;;;;;;3.43;89.37;100383.47;5060615;28;20502;-82
2021/01/07 05:16:21;;;;;;;24.50;17.02;;;;;;;3.40;89.57;100381.00;5063889;28;20044;-83
2021/01/07 05:19:25;;;;;;;24.98;17.73;;;;;;;3.35;89.63;100377.75;5072925;28;20058;-81
2021/01/07 05:22:37;;;;;;;;;;;;;;;3.22;89.65;100373.16;5072456;28;20048;-81
2021/01/07 05:25:43;;;;;;;22.23;15.77;;;;;;;3.16;90.10;100368.19;5067140;28;19920;-85
2021/01/07 05:28:53;;;;;;;21.42;16.02;;;;;;;3.20;90.44;100371.53;5068001;28;20531;-82
2021/01/07 05:31:57;;;;;;;22.88;17.67;;;;;;;3.22;90.40;100378.44;5073856;28;20047;-82
2021/01/07 05:35:04;;;;;;;22.08;16.85;;;;;;;3.18;90.47;100379.59;5026107;28;20049;-79
2021/01/07 05:38:08;;;;;;;23.20;16.90;;;;;;;3.10;90.53;100383.59;5012876;28;20048;-83
2021/01/07 05:41:14;;;;;;;23.52;17.70;;;;;;;3.04;90.89;100374.19;5026969;28;20048;-81
2021/01/07 05:44:22;;;;;;;24.85;17.48;;;;;;;3.01;91.32;100382.31;5025558;28;20053;-85
2021/01/07 05:47:28;;;;;;;24.73;16.83;;;;;;;3.01;90.89;100387.59;5029720;28;20045;-78
2021/01/07 05:50:38;;;;;;;22.00;16.75;;;;;;;2.97;91.43;100390.53;5033423;28;20053;-79
2021/01/07 05:53:45;;;;;;;23.00;16.98;;;;;;;2.95;91.44;100393.28;5025946;28;20049;-77
2021/01/07 05:56:50;;;;;;;24.38;18.30;;;;;;;3.00;91.61;100395.66;5026075;28;20044;-77
2021/01/07 05:59:57;;;;;;;21.85;16.58;;;;;;;2.97;91.93;100395.81;5013967;28;20599;-78
2021/01/07 06:03:03;;;;;;;24.73;17.15;;;;;;;2.95;91.60;100398.56;5025010;28;20045;-78
2021/01/07 06:06:08;;;;;;;134.65;88.57;;;;;;;2.92;91.78;100397.88;5026209;28;20104;-78
2021/01/07 06:09:12;;;;;;;96.20;60.53;;;;;;;2.84;91.62;100395.66;5026062;28;20483;-78
2021/01/07 06:12:16;;;;;;;24.15;18.20;;;;;;;2.80;91.65;100394.13;5029775;28;20036;-78
2021/01/07 06:15:23;;;;;;;21.67;16.33;;;;;;;2.85;91.95;100400.03;5025178;28;20052;-78
2021/01/07 06:18:27;;;;;;;23.70;16.15;;;;;;;2.83;91.92;100401.91;5025572;28;20041;-77
2021/01/07 06:21:31;;;;;;;20.92;16.48;;;;;;;2.76;91.78;100400.53;5025805;28;20060;-77
2021/01/07 06:24:37;;;;;;;20.73;16.20;;;;;;;2.79;92.03;100403.00;5023200;28;20113;-78
2021/01/07 06:27:46;;;;;;;21.05;16.08;;;;;;;2.79;91.99;100396.88;5023987;28;20044;-77
2021/01/07 06:30:54;;;;;;;20.30;16.33;;;;;;;2.86;91.99;100406.19;5031127;28;20392;-78
2021/01/07 06:33:59;;;;;;;21.55;16.48;;;;;;;2.78;91.88;100403.97;5059045;28;20060;-76
2021/01/07 06:37:03;;;;;;;23.05;17.50;;;;;;;2.69;92.07;100401.81;5074943;28;20486;-78
2021/01/07 06:40:10;;;;;;;23.05;17.55;;;;;;;2.67;92.46;100403.69;5082434;28;20067;-77
2021/01/07 06:43:18;;;;;;;20.42;16.52;;;;;;;2.70;92.50;100411.47;5079652;28;20071;-78
2021/01/07 06:46:43;;;;;;;22.83;17.77;;;;;;;2.74;92.46;100428.91;5095166;28;20051;-77
2021/01/07 06:49:49;;;;;;;23.25;17.80;;;;;;;2.80;92.84;100427.72;5075490;28;20067;-80
2021/01/07 06:53:01;;;;;;;25.58;19.95;;;;;;;3.07;94.21;100439.44;5075286;28;20064;-87
2021/01/07 06:56:22;;;;;;;21.42;16.77;;;;;;;3.17;94.04;100443.31;5073641;28;20044;-87
2021/01/07 06:59:26;;;;;;;18.30;15.00;;;;;;;3.16;92.50;100439.78;5078998;28;20067;-87
2021/01/07 07:02:31;;;;;;;20.98;16.85;;;;;;;3.13;91.88;100445.28;5095155;28;20379;-77
2021/01/07 07:05:37;;;;;;;21.60;16.55;;;;;;;3.11;91.26;100441.00;5094902;28;20047;-80
2021/01/07 07:08:45;;;;;;;20.75;16.25;;;;;;;3.13;90.88;100447.94;5081949;28;20067;-82
2021/01/07 07:11:56;;;;;;;19.65;16.10;;;;;;;3.18;90.93;100461.78;5094756;28;20074;-85
2021/01/07 07:15:00;;;;;;;20.63;16.60;;;;;;;3.20;90.81;100457.25;5091504;28;20071;-77
2021/01/07 07:18:04;;;;;;;19.92;16.27;;;;;;;3.23;90.70;100465.00;5077715;28;20055;-81
2021/01/07 07:21:16;;;;;;;23.08;16.42;;;;;;;3.26;90.53;100479.91;5080009;28;20056;-88
2021/01/07 07:24:31;;;;;;;22.50;16.58;;;;;;;3.26;90.56;100475.47;5073602;28;20127;-76
2021/01/07 07:27:49;;;;;;;18.52;15.68;;;;;;;3.28;90.61;100472.75;5074122;28;20415;-77
2021/01/07 07:30:54;;;;;;;18.35;14.88;;;;;;;3.28;90.42;100483.34;5074331;28;20051;-77
2021/01/07 07:34:01;;;;;;;20.63;15.88;;;;;;;3.33;90.31;100489.25;5073560;28;20067;-74
2021/01/07 07:37:18;;;;;;;20.30;15.25;;;;;;;3.36;90.42;100493.53;5076322;28;20051;-75
2021/01/07 07:40:36;;;;;;;19.48;14.95;;;;;;;3.39;90.53;100493.34;5073793;28;20056;-77
2021/01/07 07:43:40;;;;;;;18.30;14.80;;;;;;;3.40;90.37;100489.75;5073214;28;20111;-80
2021/01/07 07:46:45;;;;;;;19.17;14.77;;;;;;;3.43;90.07;100492.25;5067319;28;20048;-79
2021/01/07 07:49:56;;;;;;;19.50;15.18;;;;;;;3.59;90.17;100493.94;5061497;28;20499;-78
2021/01/07 07:53:09;;;;;;;16.25;14.02;;;;;;;3.61;89.77;100500.00;5053851;28;20047;-79
2021/01/07 07:56:23;;;;;;;17.50;14.43;;;;;;;3.66;89.53;100507.69;5053512;28;20048;-79
2021/01/07 07:59:27;;;;;;;19.45;14.02;;;;;;;3.69;89.40;100512.84;5053869;28;20056;-79
2021/01/07 08:02:32;;;;;;;14.88;12.52;;;;;;;3.73;89.43;100522.34;5073714;28;20510;-78
2021/01/07 08:05:37;;;;;;;15.77;13.45;;;;;;;3.70;89.08;100512.75;5065447;28;20047;-80
2021/01/07 08:08:44;;;;;;;19.17;14.20;;;;;;;3.75;88.92;100523.97;5066779;28;20059;-85
2021/01/07 08:11:53;;;;;;;20.13;15.40;;;;;;;3.77;89.14;100530.06;5072569;28;20489;-81
2021/01/07 08:14:57;;;;;;;17.58;14.30;;;;;;;3.79;89.22;100527.31;5083978;28;20498;-83
2021/01/07 08:18:18;;;;;;;17.25;14.15;;;;;;;3.81;89.76;100534.25;5073257;28;20071;-87
2021/01/07 08:21:25;;;;;;;16.38;13.38;;;;;;;3.82;89.77;100529.78;5080569;28;20043;-88
2021/01/07 08:24:29;;;;;;;16.10;13.32;;;;;;;3.93;89.60;100530.00;5073188;28;20430;-84
2021/01/07 08:27:36;;;;;;;17.40;13.80;;;;;;;3.90;89.27;100532.88;5072857;28;20055;-83
2021/01/07 08:30:48;;;;;;;16.17;13.60;;;;;;;3.90;89.15;100540.84;5072871;28;20043;-78
2021/01/07 08:33:52;;;;;;;16.10;13.55;;;;;;;3.89;88.87;100536.47;5072808;28;20047;-84
2021/01/07 08:37:16;;;;;;;17.80;12.65;;;;;;;3.99;88.69;100542.09;5072809;28;20055;-85
2021/01/07 08:40:21;;;;;;;14.95;12.77;;;;;;;4.04;88.80;100540.03;5083880;28;20044;-79
2021/01/07 08:43:26;;;;;;;15.93;12.98;;;;;;;4.13;88.61;100540.34;5072721;28;20415;-79
2021/01/07 08:46:42;;;;;;;15.63;13.80;;;;;;;4.18;88.53;100551.56;5072881;28;20399;-83
2021/01/07 08:49:46;;;;;;;15.40;13.25;;;;;;;4.27;87.71;100551.00;5073347;28;20051;-77
2021/01/07 08:52:58;;;;;;;17.45;13.82;;;;;;;4.40;87.26;100549.34;5073023;28;20052;-80
2021/01/07 08:56:02;;;;;;;14.90;12.93;;;;;;;4.51;86.83;100538.94;5074843;28;20055;-79
2021/01/07 08:59:26;;;;;;;18.08;14.40;;;;;;;4.53;86.70;100547.69;5076654;28;20044;-83
2021/01/07 09:02:32;;;;;;;16.27;14.07;;;;;;;4.58;86.43;100545.59;5076995;28;20059;-81
2021/01/07 09:05:36;;;;;;;18.77;13.82;;;;;;;4.63;86.68;100545.31;5075760;28;20043;-81
2021/01/07 09:08:40;;;;;;;17.90;13.43;;;;;;;4.67;86.42;100549.50;5076546;28;20064;-86
2021/01/07 09:11:45;;;;;;;17.75;14.63;;;;;;;4.78;86.30;100555.03;5075804;28;20043;-79
2021/01/07 09:14:52;;;;;;;16.60;13.15;;;;;;;4.99;85.90;100551.03;5076441;28;20490;-84
2021/01/07 09:17:56;;;;;;;17.65;13.10;;;;;;;5.12;85.03;100548.47;5076440;28;20506;-81
2021/01/07 09:21:12;;;;;;;14.48;11.95;;;;;;;5.18;83.86;100551.59;5073786;28;20043;-76
2021/01/07 09:24:16;;;;;;;14.00;11.60;;;;;;;5.37;83.68;100551.31;5076433;28;20047;-77
2021/01/07 09:27:22;;;;;;;14.68;11.18;;;;;;;5.53;83.20;100544.03;5075947;28;20056;-77
2021/01/07 09:30:28;;;;;;;16.92;11.75;;;;;;;5.45;82.78;100546.38;5076129;28;20387;-77
2021/01/07 09:33:31;;;;;;;12.45;10.93;;;;;;;5.48;82.95;100547.97;5075277;28;20051;-75
2021/01/07 09:36:36;;;;;;;12.23;10.90;;;;;;;5.58;83.00;100554.44;5063933;28;20048;-78
2021/01/07 09:39:43;;;;;;;12.65;10.93;;;;;;;5.60;82.56;100549.84;5066830;28;20549;-82
2021/01/07 09:42:49;;;;;;;14.32;11.10;;;;;;;5.55;83.33;100552.81;5075023;28;20052;-83
2021/01/07 09:45:53;;;;;;;14.10;11.35;;;;;;;5.59;83.39;100554.31;5075414;28;20403;-86
2021/01/07 09:48:57;;;;;;;12.60;11.30;;;;;;;5.59;83.42;100550.78;5076979;28;20044;-85
2021/01/07 09:52:03;;;;;;;13.40;10.80;;;;;;;5.65;83.25;100553.91;5077813;28;20047;-85
2021/01/07 09:55:09;;;;;;;13.35;10.40;;;;;;;5.78;82.59;100548.66;5075945;28;20052;-82
2021/01/07 09:58:13;;;;;;;12.35;10.50;;;;;;;5.92;81.85;100555.78;5075762;28;20434;-84
2021/01/07 10:01:19;;;;;;;13.50;10.70;;;;;;;6.00;81.55;100556.16;5086396;28;20391;-81
2021/01/07 10:04:23;;;;;;;14.23;10.45;;;;;;;6.02;81.25;100543.56;5075782;28;20055;-84
2021/01/07 10:07:27;;;;;;;13.48;11.63;;;;;;;6.13;81.42;100549.88;5074833;28;20494;-84
2021/01/07 10:10:32;;;;;;;14.65;10.75;;;;;;;6.27;81.19;100551.66;5075643;28;20400;-83
2021/01/07 10:13:37;;;;;;;13.73;11.10;;;;;;;6.25;81.46;100545.53;5075508;28;20094;-84
2021/01/07 10:16:45;;;;;;;18.30;15.15;;;;;;;6.19;81.76;100543.31;5076374;28;20060;-85
2021/01/07 10:19:50;;;;;;;20.92;18.67;;;;;;;6.29;82.04;100544.41;5075794;28;20142;-85
2021/01/07 10:22:54;;;;;;;17.10;15.27;;;;;;;6.47;81.30;100537.81;5075638;28;20498;-85
2021/01/07 10:25:59;;;;;;;14.00;12.05;;;;;;;6.67;80.23;100537.31;5075989;28;20071;-85
2021/01/07 10:29:03;;;;;;;12.63;10.48;;;;;;;6.81;79.36;100533.69;5076073;28;20395;-85
2021/01/07 10:32:11;;;;;;;11.13;9.93;;;;;;;6.67;79.10;100536.44;5076150;28;20051;-84
2021/01/07 10:35:15;;;;;;;11.82;9.65;;;;;;;6.64;79.02;100534.84;5076270;28;20044;-82
2021/01/07 10:38:23;;;;;;;11.43;10.25;;;;;;;6.48;79.55;100529.72;5074759;28;20047;-81
2021/01/07 10:41:30;;;;;;;13.15;10.88;;;;;;;6.40;80.26;100528.53;5080601;28;20115;-79
2021/01/07 10:44:36;;;;;;;12.73;11.07;;;;;;;6.40;80.75;100523.19;5083792;28;20051;-87
2021/01/07 10:47:44;;;;;;;13.50;12.00;;;;;;;6.48;80.45;100519.06;5078500;28;20510;-84
2021/01/07 10:50:49;;;;;;;15.02;13.00;;;;;;;6.66;80.56;100518.75;5054738;28;20048;-81
2021/01/07 10:54:08;;;;;;;15.15;13.55;;;;;;;6.72;80.13;100518.31;5054767;28;20044;-87
2021/01/07 10:57:50;;;;;;;16.40;14.57;;;;;;;6.71;79.71;100513.94;5054429;28;20076;-83
2021/01/07 11:01:05;;;;;;;19.13;14.65;;;;;;;6.65;80.19;100509.03;5054743;28;20048;-82
2021/01/07 11:06:39;;;;;;;17.13;13.07;;;;;;;6.73;79.17;100504.03;5054720;28;20429;-83
2021/01/07 11:09:47;;;;;;;16.52;13.05;;;;;;;6.67;79.14;100502.63;5054935;28;20424;-80
2021/01/07 11:13:02;;;;;;;16.52;12.75;;;;;;;6.83;79.21;100503.28;5053799;28;20510;-83
2021/01/07 11:16:10;;;;;;;;;;;;;;;6.90;78.40;100504.56;5054996;28;20052;-87
2021/01/07 11:19:22;;;;;;;15.82;12.27;;;;;;;6.96;76.90;100492.59;5052986;28;19917;-82
2021/01/07 11:22:31;;;;;;;13.02;11.10;;;;;;;7.04;75.52;100488.41;5053717;28;20408;-85
2021/01/07 11:25:36;;;;;;;13.70;11.98;;;;;;;7.17;74.88;100504.41;5054964;28;20052;-86
2021/01/07 11:28:42;;;;;;;13.82;10.98;;;;;;;7.27;74.69;100497.47;5054735;28;20044;-86
2021/01/07 11:31:47;;;;;;;12.75;10.82;;;;;;;7.29;74.64;100492.00;5068840;28;20044;-83
2021/01/07 11:34:52;;;;;;;12.35;10.90;;;;;;;7.03;73.54;100489.41;5073824;28;20579;-83
2021/01/07 11:38:02;;;;;;;12.70;10.98;;;;;;;6.87;73.72;100494.09;5074739;28;20071;-78
2021/01/07 11:41:39;;;;;;;12.98;11.68;;;;;;;6.78;73.87;100485.88;5074115;28;20055;-78
2021/01/07 11:44:54;;;;;;;13.13;11.07;;;;;;;6.73;74.53;100480.88;5073284;28;20052;-79
2021/01/07 11:48:07;;;;;;;12.55;11.27;;;;;;;6.54;73.51;100478.63;5074288;28;20111;-77
2021/01/07 11:51:12;;;;;;;13.02;11.63;;;;;;;6.54;74.04;100477.78;5085008;28;20047;-80
2021/01/07 11:54:19;;;;;;;16.27;12.10;;;;;;;6.56;74.12;100470.53;5084854;28;20533;-79
2021/01/07 11:57:25;;;;;;;13.05;11.68;;;;;;;6.64;74.21;100472.66;5073752;28;20059;-82
2021/01/07 12:00:30;;;;;;;13.93;10.95;;;;;;;6.74;73.68;100458.56;5073946;28;20071;-79
2021/01/07 12:03:35;;;;;;;14.07;12.55;;;;;;;6.80;73.68;100463.47;5073083;28;20051;-80
2021/01/07 12:06:55;;;;;;;14.60;11.35;;;;;;;6.80;73.73;100447.47;5074196;28;20055;-80
2021/01/07 12:10:03;;;;;;;13.98;12.50;;;;;;;6.71;73.79;100441.94;5075385;28;20044;-83
2021/01/07 12:13:46;;;;;;;13.20;11.20;;;;;;;6.70;73.55;100438.41;5079285;28;20055;-78
2021/01/07 12:16:55;;;;;;;15.13;12.93;;;;;;;6.63;73.83;100433.63;5011534;28;20177;-84
2021/01/07 12:20:00;;;;;;;16.08;12.35;;;;;;;6.74;74.21;100431.06;5011746;28;20218;-79
2021/01/07 12:23:06;;;;;;;17.63;13.70;;;;;;;6.53;75.06;100423.59;5011110;28;20052;-81
2021/01/07 12:26:12;;;;;;;16.35;13.50;;;;;;;6.60;75.51;100420.47;5011491;28;20053;-85
2021/01/07 12:29:21;;;;;;;18.42;14.50;;;;;;;6.63;75.70;100405.13;4980356;28;20441;-84
2021/01/07 12:32:33;;;;;;;15.68;13.98;;;;;;;6.59;76.30;100409.00;4991841;28;20053;-82
2021/01/07 12:35:41;;;;;;;;;;;;;;;6.48;77.16;100417.72;4991833;28;20101;-84
2021/01/07 12:39:23;;;;;;;18.23;13.70;;;;;;;6.36;76.94;100418.59;4980810;28;19918;-80
2021/01/07 12:42:29;;;;;;;18.00;13.80;;;;;;;6.48;76.84;100419.53;4991861;28;20142;-82
2021/01/07 12:45:35;;;;;;;17.27;13.82;;;;;;;6.57;76.88;100409.09;4991355;28;20057;-81
2021/01/07 12:48:41;;;;;;;19.50;14.25;;;;;;;6.50;76.56;100404.28;4991650;28;20045;-84
2021/01/07 12:51:47;;;;;;;16.95;14.68;;;;;;;6.54;76.24;100403.13;5055091;28;20391;-87
2021/01/07 12:54:54;;;;;;;17.92;13.95;;;;;;;6.73;75.45;100398.19;5062645;28;20052;-86
2021/01/07 12:58:16;;;;;;;14.15;12.57;;;;;;;6.76;73.96;100386.44;5058937;28;20052;-80
2021/01/07 13:01:26;;;;;;;16.38;12.00;;;;;;;6.79;73.58;100389.72;5068936;28;20119;-76
2021/01/07 13:04:53;;;;;;;14.85;12.85;;;;;;;6.80;73.08;100388.78;5071174;28;20044;-76
2021/01/07 13:08:01;;;;;;;15.73;14.02;;;;;;;6.77;73.07;100386.31;5071890;28;20510;-87
2021/01/07 13:11:09;;;;;;;14.55;12.75;;;;;;;6.88;73.58;100386.44;5072878;28;20055;-85
2021/01/07 13:14:14;;;;;;;15.63;12.85;;;;;;;6.97;73.81;100380.41;5071644;28;20047;-83
2021/01/07 13:17:19;;;;;;;14.93;13.23;;;;;;;6.93;73.83;100381.59;5071059;28;20055;-85
2021/01/07 13:20:24;;;;;;;15.75;13.00;;;;;;;7.07;73.57;100385.94;5073043;28;20052;-81
2021/01/07 13:23:30;;;;;;;15.48;12.85;;;;;;;7.12;73.57;100394.47;5072197;28;20075;-86
2021/01/07 13:26:34;;;;;;;14.20;12.60;;;;;;;6.97;73.90;100384.88;5073047;28;20044;-80
2021/01/07 13:29:38;;;;;;;19.35;14.00;;;;;;;6.83;nan;100388.56;5070516;28;20043;-76
2021/01/07 13:32:47;;;;;;;15.85;13.98;;;;;;;6.75;75.17;100384.72;5072520;28;20051;-86
2021/01/07 13:35:58;;;;;;;17.00;13.80;;;;;;;6.67;75.36;100381.75;5072369;28;20059;-82
2021/01/07 13:39:03;;;;;;;14.85;13.25;;;;;;;6.66;75.65;100386.25;5071604;28;20068;-83
2021/01/07 13:42:08;;;;;;;18.45;14.85;;;;;;;6.54;75.90;100395.97;5074227;28;20403;-85
2021/01/07 13:45:15;;;;;;;28.50;13.85;;;;;;;6.56;75.18;100385.19;5075842;28;20043;-75
2021/01/07 13:48:21;;;;;;;17.65;15.75;;;;;;;6.45;75.91;100395.75;5075245;28;20052;-78
2021/01/07 13:51:28;;;;;;;15.77;14.18;;;;;;;6.44;76.33;100396.72;5076204;28;20396;-83
2021/01/07 13:54:37;;;;;;;16.42;14.10;;;;;;;6.47;76.31;100401.81;5075816;28;20055;-84
2021/01/07 13:57:42;;;;;;;17.25;14.25;;;;;;;6.49;76.40;100400.75;5076143;28;20052;-82
2021/01/07 14:00:47;;;;;;;17.38;14.82;;;;;;;6.61;76.60;100399.06;5073802;28;20043;-86
2021/01/07 14:03:52;;;;;;;18.30;16.40;;;;;;;6.65;76.65;100400.53;5074468;28;20064;-86
2021/01/07 14:06:57;;;;;;;19.33;15.27;;;;;;;6.56;76.85;100395.88;5076095;28;20060;-80
2021/01/07 14:10:03;;;;;;;22.70;16.45;;;;;;;6.40;76.84;100405.88;5080742;28;20052;-80
2021/01/07 14:13:08;;;;;;;19.70;16.20;;;;;;;6.35;77.08;100408.88;5071078;28;20429;-80
2021/01/07 14:16:13;;;;;;;17.50;15.77;;;;;;;6.33;78.28;100407.28;5075231;28;20051;-85
2021/01/07 14:19:18;;;;;;;18.13;16.08;;;;;;;6.41;78.11;100410.28;5074488;28;20063;-82
2021/01/07 14:22:22;;;;;;;17.45;15.60;;;;;;;6.39;77.72;100412.19;5074427;28;20506;-78
2021/01/07 14:25:28;;;;;;;16.83;15.02;;;;;;;6.27;77.10;100407.72;5075192;28;20119;-77